WVI weather

Watsonville Municipal Airport
Watsonville, California, United States

Public forecast

Using degrees Fahrenheit for public forecast. Weather courtesy of forecast.io.

Current aviation weather report (METAR) for Watsonville Municipal Airport

Retrieved 2019/10/14 11:35 UTC (9 minutes ago):

KWVI 141135Z AUTO VRB03KT 10SM OVC004 10/08 A2993 RMK AO2 T01000083

Closest aviation forecast (TAF) to Watsonville Municipal Airport

Closest forecast is Salinas Municipal Airport, 18.6 nm (34.5 km) SSE. Retrieved 2019/10/14 06:30 UTC (5 hours ago):

TAF KSNS 140526Z 1406/1506 30006KT P6SM SKC FM140700 VRB05KT P6SM SKC TEMPO 1407/1411 BKN008 FM141600 12008KT P6SM SKC FM141900 28011KT P6SM SKC FM150200 31006KT P6SM SKC